Time;durP1;ratioP1;P1;durP2;ratioP2;P2;SDS_P1;SDS_P2;PMS_P1;PMS_P2;Temp;Humidity;BMP_temperature;BMP_pressure;BME280_temperature;BME280_humidity;BME280_pressure;Samples;Min_cycle;Max_cycle;Signal;HPM_P1;HPM_P2
2024/03/14 00:00:05;;;;;;;;;;;8.80;99.90;;;7.81;100.00;98010.56;4949278;28;1998;-69
2024/03/14 00:02:32;;;;;;;;;;;8.80;99.90;;;7.86;100.00;98007.84;4951833;28;1664;-69
2024/03/14 00:04:59;;;;;;;;;;;8.70;99.90;;;7.90;100.00;98007.75;4953085;28;1566;-69
2024/03/14 00:07:26;;;;;;;;;;;8.70;99.90;;;7.86;100.00;98006.09;4948717;28;1542;-69
2024/03/14 00:09:52;;;;;;;;;;;8.70;99.90;;;7.83;100.00;98013.94;4951807;28;1453;-69
2024/03/14 00:12:20;;;;;;;;;;;8.70;99.90;;;7.80;100.00;98010.56;4932591;28;1855;-69
2024/03/14 00:14:50;;;;;;;;;;;8.60;99.90;;;7.64;100.00;98007.53;4955161;28;1692;-69
2024/03/14 00:17:20;;;;;;;;;;;8.40;99.90;;;7.59;100.00;98011.94;4948507;28;1801;-69
2024/03/14 00:19:50;;;;;;;;;;;8.50;99.90;;;7.64;100.00;98002.34;4929074;28;1907;-69
2024/03/14 00:22:21;;;;;;;;;;;8.40;99.90;;;7.39;100.00;98008.13;4945585;28;1474;-69
2024/03/14 00:24:48;;;;;;;;;;;8.50;99.90;;;7.51;100.00;97999.22;4944729;28;1427;-69
2024/03/14 00:27:15;;;;;;;;;;;8.40;99.90;;;7.68;100.00;98004.81;4944615;28;1778;-69
2024/03/14 00:29:42;;;;;;;;;;;8.50;99.90;;;7.75;100.00;98011.56;4948639;28;1508;-69
2024/03/14 00:32:09;;;;;;;;;;;8.40;99.90;;;7.78;100.00;98014.94;4948957;28;1421;-69
2024/03/14 00:34:36;;;;;;;;;;;8.50;99.90;;;7.74;100.00;98009.00;4947617;28;1563;-69
2024/03/14 00:37:03;;;;;;;;;;;8.40;99.90;;;7.59;100.00;98002.47;4935975;28;1560;-69
2024/03/14 00:39:31;;;;;;;;;;;8.40;99.90;;;7.69;100.00;97993.63;4950055;28;1906;-69
2024/03/14 00:41:59;;;;;;;;;;;8.40;99.90;;;7.69;100.00;97998.78;4979470;28;1693;-69
2024/03/14 00:44:26;;;;;;;;;;;8.30;99.90;;;7.69;100.00;97995.34;4942802;28;1384;-69
2024/03/14 00:46:53;;;;;;;;;;;8.20;99.90;;;7.50;100.00;97992.34;4951940;28;1420;-69
2024/03/14 00:49:20;;;;;;;;;;;8.20;99.90;;;7.52;100.00;97988.00;4939712;28;1606;-69
2024/03/14 00:51:47;;;;;;;;;;;8.20;99.90;;;7.46;100.00;97981.25;4945658;28;1653;-69
2024/03/14 00:54:14;;;;;;;;;;;8.20;99.90;;;7.28;100.00;97979.94;4960786;28;1300;-69
2024/03/14 00:56:43;;;;;;;;;;;8.10;99.90;;;7.41;100.00;97977.94;4949657;28;1491;-69
2024/03/14 00:59:12;;;;;;;;;;;8.00;99.90;;;7.18;100.00;97970.69;4953712;28;1991;-69
2024/03/14 01:01:44;;;;;;;;;;;8.00;99.90;;;7.28;100.00;97969.63;4959504;28;1717;-69
2024/03/14 01:04:12;;;;;;;;;;;7.90;99.90;;;7.15;100.00;97973.34;4949146;28;1311;-69
2024/03/14 01:06:39;;;;;;;;;;;7.80;99.90;;;7.01;100.00;97973.66;4944066;28;1463;-69
2024/03/14 01:09:07;;;;;;;;;;;7.70;99.90;;;7.01;100.00;97975.41;4977474;28;1631;-69
2024/03/14 01:11:34;;;;;;;;;;;7.50;99.90;;;7.03;100.00;97969.31;4946985;28;1380;-69
2024/03/14 01:14:01;;;;;;;;;;;7.50;99.90;;;6.85;100.00;97967.16;4945101;28;1419;-69
2024/03/14 01:16:29;;;;;;;;;;;7.50;99.90;;;6.94;100.00;97973.84;4952876;28;1409;-69
2024/03/14 01:18:56;;;;;;;;;;;7.40;99.90;;;6.88;100.00;97974.81;4952276;28;1910;-69
2024/03/14 01:21:23;;;;;;;;;;;7.40;99.90;;;6.87;100.00;97978.28;4952878;28;1523;-69
2024/03/14 01:23:50;;;;;;;;;;;7.40;99.90;;;6.70;100.00;97981.19;4954873;28;1787;-69
2024/03/14 01:26:20;;;;;;;;;;;7.50;99.90;;;6.87;100.00;97980.88;4952091;28;1397;-69
2024/03/14 01:28:46;;;;;;;;;;;7.40;99.90;;;6.60;100.00;97977.97;4953317;28;1444;-69
2024/03/14 01:31:14;;;;;;;;;;;7.50;99.90;;;6.65;100.00;97973.56;4954095;28;1792;-69
2024/03/14 01:33:41;;;;;;;;;;;7.50;99.90;;;6.86;100.00;97977.41;4944839;28;1413;-69
2024/03/14 01:36:10;;;;;;;;;;;7.50;99.90;;;6.65;100.00;97967.56;4944279;28;1348;-69
2024/03/14 01:38:37;;;;;;;;;;;7.50;99.90;;;6.87;100.00;97966.22;4964057;28;1468;-69
2024/03/14 01:41:15;;;;;;;;;;;7.60;99.90;;;6.87;100.00;97981.72;4949719;28;1466;-69
2024/03/14 01:43:42;;;;;;;;;;;7.70;99.90;;;7.05;100.00;97985.63;4963577;28;1466;-69
2024/03/14 01:46:09;;;;;;;;;;;7.80;99.90;;;7.25;100.00;97982.59;4952565;28;1441;-69
2024/03/14 01:48:36;;;;;;;;;;;7.90;99.90;;;7.31;100.00;97987.59;4956582;28;1746;-69
2024/03/14 01:51:03;;;;;;;;;;;7.90;99.90;;;7.09;100.00;97983.81;4962027;28;1809;-69
2024/03/14 01:53:30;;;;;;;;;;;7.90;99.90;;;7.09;100.00;97979.53;4946682;28;1430;-69
2024/03/14 01:55:57;;;;;;;;;;;7.90;99.90;;;7.13;100.00;97981.13;4956178;28;1442;-69
2024/03/14 01:58:26;;;;;;;;;;;7.70;99.90;;;6.98;100.00;97972.88;4945109;28;1374;-69
2024/03/14 02:00:53;;;;;;;;;;;7.70;99.90;;;6.93;100.00;97970.38;4950609;28;1981;-69
2024/03/14 02:03:21;;;;;;;;;;;7.60;99.90;;;6.99;100.00;97962.53;4980814;28;1293;-69
2024/03/14 02:05:56;;;;;;;;;;;7.50;99.90;;;6.75;100.00;97956.19;4949964;28;1602;-69
2024/03/14 02:08:23;;;;;;;;;;;7.50;99.90;;;6.88;100.00;97952.44;4965764;28;1553;-69
2024/03/14 02:10:49;;;;;;;;;;;7.40;99.90;;;6.75;100.00;97945.88;4947188;28;1383;-69
2024/03/14 02:13:16;;;;;;;;;;;7.40;99.90;;;6.76;100.00;97950.13;4945953;28;1283;-69
2024/03/14 02:15:43;;;;;;;;;;;7.40;99.90;;;6.95;100.00;97950.56;4957013;28;1309;-69
2024/03/14 02:18:10;;;;;;;;;;;7.40;99.90;;;7.09;100.00;97947.66;4953890;28;1412;-69
2024/03/14 02:20:39;;;;;;;;;;;7.50;99.90;;;7.16;100.00;97946.69;4960628;28;1895;-69
2024/03/14 02:23:06;;;;;;;;;;;7.50;99.90;;;7.19;100.00;97940.59;4952933;28;1239;-69
2024/03/14 02:25:35;;;;;;;;;;;7.50;99.90;;;7.22;100.00;97936.19;4958358;28;1342;-69
2024/03/14 02:28:03;;;;;;;;;;;7.60;99.90;;;7.17;100.00;97935.44;4948529;28;1382;-69
2024/03/14 02:30:29;;;;;;;;;;;7.60;99.90;;;7.21;100.00;97941.41;4947915;28;1508;-69
2024/03/14 02:32:57;;;;;;;;;;;7.60;99.90;;;7.11;100.00;97939.00;4953920;28;1971;-69
2024/03/14 02:35:24;;;;;;;;;;;7.60;99.90;;;6.99;100.00;97931.56;4957173;28;1408;-69
2024/03/14 02:37:52;;;;;;;;;;;7.70;99.90;;;7.16;100.00;97936.34;4947366;28;1272;-69
2024/03/14 02:40:19;;;;;;;;;;;7.60;99.90;;;7.17;100.00;97938.03;4949499;28;1989;-69
2024/03/14 02:42:47;;;;;;;;;;;7.60;99.90;;;7.15;100.00;97932.06;4945739;28;1734;-69
2024/03/14 02:45:14;;;;;;;;;;;7.60;99.90;;;6.91;100.00;97930.88;4947245;28;1220;-69
2024/03/14 02:47:41;;;;;;;;;;;7.50;99.90;;;7.01;100.00;97928.94;4948038;28;1226;-69
2024/03/14 02:50:09;;;;;;;;;;;7.50;99.90;;;7.01;100.00;97918.63;4946512;28;1204;-69
2024/03/14 02:52:37;;;;;;;;;;;7.50;99.90;;;6.91;100.00;97923.13;4953406;28;1399;-69
2024/03/14 02:55:07;;;;;;;;;;;7.60;99.90;;;6.79;100.00;97925.97;4954221;28;1310;-69
2024/03/14 02:57:34;;;;;;;;;;;7.60;99.90;;;6.79;100.00;97928.56;4956393;28;1687;-69
2024/03/14 03:00:04;;;;;;;;;;;7.50;99.90;;;6.73;100.00;97934.72;4945334;28;1979;-69
2024/03/14 03:02:31;;;;;;;;;;;7.50;99.90;;;6.72;100.00;97934.75;4957440;28;1425;-69
2024/03/14 03:04:58;;;;;;;;;;;7.60;99.90;;;6.72;100.00;97932.16;4950833;28;2116;-69
2024/03/14 03:07:26;;;;;;;;;;;7.60;99.90;;;6.66;100.00;97935.72;4957876;28;1406;-69
2024/03/14 03:09:53;;;;;;;;;;;7.60;99.90;;;6.83;100.00;97938.78;4946862;28;1666;-69
2024/03/14 03:12:20;;;;;;;;;;;7.50;99.90;;;6.69;100.00;97939.09;4956231;28;1397;-69
2024/03/14 03:14:47;;;;;;;;;;;7.50;99.90;;;6.66;100.00;97940.88;4955608;28;1263;-69
2024/03/14 03:17:13;;;;;;;;;;;7.60;99.90;;;6.77;100.00;97932.91;4951372;28;1383;-69
2024/03/14 03:19:40;;;;;;;;;;;7.50;99.90;;;6.77;100.00;97933.75;4953339;28;1914;-69
2024/03/14 03:22:07;;;;;;;;;;;7.60;99.90;;;6.68;100.00;97929.66;4966533;28;1355;-69
2024/03/14 03:24:34;;;;;;;;;;;7.60;99.90;;;6.81;100.00;97929.38;4947000;28;1365;-69
2024/03/14 03:27:13;;;;;;;;;;;7.70;99.90;;;6.89;100.00;97922.34;4954716;28;1434;-69
2024/03/14 03:29:40;;;;;;;;;;;7.70;99.90;;;6.73;100.00;97915.78;4948767;28;1258;-69
2024/03/14 03:32:07;;;;;;;;;;;7.60;99.90;;;6.84;100.00;97913.81;4944095;28;1442;-69
2024/03/14 03:34:34;;;;;;;;;;;7.60;99.90;;;6.81;100.00;97908.75;4949586;28;1335;-69
2024/03/14 03:37:00;;;;;;;;;;;7.60;99.90;;;6.62;100.00;97904.00;4971122;28;1337;-69
2024/03/14 03:39:27;;;;;;;;;;;7.50;99.90;;;6.48;100.00;97903.44;4947399;28;1910;-69
2024/03/14 03:41:54;;;;;;;;;;;7.50;99.90;;;6.51;100.00;97911.09;4945751;28;1399;-69
2024/03/14 03:44:21;;;;;;;;;;;7.50;99.90;;;6.51;100.00;97916.25;4957927;28;1364;-69
2024/03/14 03:46:48;;;;;;;;;;;7.50;99.90;;;6.58;100.00;97910.09;4944870;28;1329;-69
2024/03/14 03:49:16;;;;;;;;;;;7.60;99.90;;;6.64;100.00;97912.53;4947521;28;1516;-69
2024/03/14 03:51:45;;;;;;;;;;;7.40;99.90;;;6.62;100.00;97910.88;4947211;28;1426;-69
2024/03/14 03:54:12;;;;;;;;;;;7.30;99.90;;;6.74;100.00;97920.09;4952900;28;1289;-69
2024/03/14 03:56:40;;;;;;;;;;;7.30;99.90;;;6.58;100.00;97909.25;4953060;28;1286;-69
2024/03/14 03:59:08;;;;;;;;;;;7.30;99.90;;;6.60;100.00;97908.31;4944384;28;1259;-69
2024/03/14 04:01:35;;;;;;;;;;;7.20;99.90;;;6.62;100.00;97916.88;4949259;28;1997;-69
2024/03/14 04:04:02;;;;;;;;;;;7.20;99.90;;;6.46;100.00;97907.78;4949281;28;1363;-69
2024/03/14 04:06:33;;;;;;;;;;;7.20;99.90;;;6.43;100.00;97902.66;4955134;28;1294;-69
2024/03/14 04:09:01;;;;;;;;;;;7.20;99.90;;;6.41;100.00;97897.56;4945581;28;1245;-69
2024/03/14 04:11:28;;;;;;;;;;;7.20;99.90;;;6.47;100.00;97906.88;4947680;28;1544;-69
2024/03/14 04:13:55;;;;;;;;;;;7.20;99.90;;;6.58;100.00;97907.50;4961597;28;1379;-69
2024/03/14 04:16:22;;;;;;;;;;;7.10;99.90;;;6.54;100.00;97899.88;4943093;28;1245;-69
2024/03/14 04:18:49;;;;;;;;;;;7.10;99.90;;;6.57;100.00;97899.78;4948871;28;1334;-69
2024/03/14 04:21:16;;;;;;;;;;;7.10;99.90;;;6.60;100.00;97907.47;4944765;28;1990;-69
2024/03/14 04:23:43;;;;;;;;;;;7.10;99.90;;;6.52;100.00;97912.78;4955992;28;1267;-69
2024/03/14 04:26:12;;;;;;;;;;;7.10;99.90;;;6.63;100.00;97912.56;4954915;28;1379;-69
2024/03/14 04:28:39;;;;;;;;;;;7.00;99.90;;;6.53;100.00;97906.75;4957150;28;1285;-69
2024/03/14 04:31:07;;;;;;;;;;;7.10;99.90;;;6.59;100.00;97903.19;4944765;28;1261;-69
2024/03/14 04:33:34;;;;;;;;;;;7.10;99.90;;;6.69;100.00;97902.97;4955689;28;1294;-69
2024/03/14 04:36:03;;;;;;;;;;;7.00;99.90;;;6.68;100.00;97901.28;4943722;28;1216;-69
2024/03/14 04:38:32;;;;;;;;;;;7.00;99.90;;;6.63;100.00;97897.09;4981904;28;1310;-69
2024/03/14 04:41:00;;;;;;;;;;;7.00;99.90;;;6.53;100.00;97890.44;4951183;28;2346;-69
2024/03/14 04:43:27;;;;;;;;;;;7.00;99.90;;;6.46;100.00;97893.16;4948637;28;1227;-69
2024/03/14 04:45:54;;;;;;;;;;;7.10;99.90;;;6.52;100.00;97891.31;4952153;28;1350;-69
2024/03/14 04:48:21;;;;;;;;;;;7.10;99.90;;;6.60;100.00;97882.53;4949943;28;1303;-69
2024/03/14 04:50:49;;;;;;;;;;;7.10;99.90;;;6.38;100.00;97887.28;4951575;28;1292;-69
2024/03/14 04:53:16;;;;;;;;;;;7.10;99.90;;;6.32;100.00;97886.56;4951521;28;1322;-69
2024/03/14 04:55:45;;;;;;;;;;;7.10;99.90;;;6.25;100.00;97878.97;4953741;28;1273;-69
2024/03/14 04:58:15;;;;;;;;;;;7.10;99.90;;;6.39;100.00;97880.44;4952140;28;1299;-69
2024/03/14 05:00:45;;;;;;;;;;;7.20;99.90;;;6.36;100.00;97878.72;4951553;28;1918;-69
2024/03/14 05:03:13;;;;;;;;;;;7.20;99.90;;;6.32;100.00;97890.00;4947360;28;1386;-69
2024/03/14 05:05:40;;;;;;;;;;;7.20;99.90;;;6.46;100.00;97890.56;4965970;28;1298;-69
2024/03/14 05:08:07;;;;;;;;;;;7.20;99.90;;;6.43;100.00;97887.19;4950906;28;1410;-69
2024/03/14 05:10:34;;;;;;;;;;;7.10;99.90;;;6.42;100.00;97881.19;4952048;28;1332;-69
2024/03/14 05:13:02;;;;;;;;;;;7.10;99.90;;;6.33;100.00;97885.69;4950673;28;1299;-69
2024/03/14 05:15:28;;;;;;;;;;;7.10;99.90;;;6.43;100.00;97893.22;4950451;28;1377;-69
2024/03/14 05:18:01;;;;;;;;;;;7.20;99.90;;;6.47;100.00;97889.66;4954270;28;1361;-69
2024/03/14 05:20:29;;;;;;;;;;;7.10;99.90;;;6.44;100.00;97887.16;4948945;28;1907;-69
2024/03/14 05:22:57;;;;;;;;;;;7.00;99.90;;;6.20;100.00;97888.53;4953135;28;1191;-69
2024/03/14 05:25:24;;;;;;;;;;;7.00;99.90;;;6.35;100.00;97889.94;4952684;28;1400;-69
2024/03/14 05:27:52;;;;;;;;;;;6.90;99.90;;;6.46;100.00;97893.16;4943167;28;1304;-69
2024/03/14 05:30:18;;;;;;;;;;;6.90;99.90;;;6.40;100.00;97892.44;4951954;28;1384;-69
2024/03/14 05:32:46;;;;;;;;;;;6.80;99.90;;;6.28;100.00;97888.38;4949288;28;1329;-69
2024/03/14 05:35:13;;;;;;;;;;;6.90;99.90;;;6.20;100.00;97891.13;4939475;28;1299;-69
2024/03/14 05:37:41;;;;;;;;;;;6.90;99.90;;;6.24;100.00;97891.88;4942447;28;1507;-69
2024/03/14 05:40:12;;;;;;;;;;;6.90;99.90;;;6.21;100.00;97882.50;4951883;28;1931;-69
2024/03/14 05:42:39;;;;;;;;;;;7.00;99.90;;;6.21;100.00;97882.50;4958592;28;1402;-69
2024/03/14 05:45:08;;;;;;;;;;;7.00;99.90;;;6.33;100.00;97883.13;4948207;28;1347;-69
2024/03/14 05:47:38;;;;;;;;;;;7.00;99.90;;;6.27;100.00;97877.22;4944177;28;1302;-69
2024/03/14 05:50:06;;;;;;;;;;;7.00;99.90;;;6.37;100.00;97872.72;4958227;28;1383;-69
2024/03/14 05:52:34;;;;;;;;;;;7.00;99.90;;;6.25;100.00;97868.66;4953350;28;1236;-69
2024/03/14 05:55:02;;;;;;;;;;;7.00;99.90;;;6.34;100.00;97861.59;4949607;28;1086;-69
2024/03/14 05:57:29;;;;;;;;;;;7.00;99.90;;;6.20;100.00;97862.75;4960641;28;1347;-69
2024/03/14 05:59:56;;;;;;;;;;;7.00;99.90;;;6.24;100.00;97859.22;4933300;28;1923;-69
2024/03/14 06:02:23;;;;;;;;;;;7.00;99.90;;;6.27;100.00;97854.03;4951267;28;1477;-69
2024/03/14 06:04:51;;;;;;;;;;;7.00;99.90;;;6.39;100.00;97863.22;4962763;28;1275;-69
2024/03/14 06:07:18;;;;;;;;;;;6.90;99.90;;;6.40;100.00;97864.91;4946438;28;1472;-69
2024/03/14 06:09:50;;;;;;;;;;;6.80;99.90;;;6.42;100.00;97863.16;4955154;28;1379;-69
2024/03/14 06:12:17;;;;;;;;;;;6.80;99.90;;;6.45;100.00;97859.66;4947144;28;1252;-69
2024/03/14 06:14:45;;;;;;;;;;;6.80;99.90;;;6.39;100.00;97862.38;4950056;28;1037;-69
2024/03/14 06:17:12;;;;;;;;;;;6.80;99.90;;;6.37;100.00;97857.25;4975039;28;1101;-69
2024/03/14 06:19:39;;;;;;;;;;;6.80;99.90;;;6.37;100.00;97861.56;4950279;28;1119;-69
2024/03/14 06:22:06;;;;;;;;;;;6.70;99.90;;;6.21;100.00;97856.72;4946603;28;2011;-69
2024/03/14 06:24:33;;;;;;;;;;;6.80;99.90;;;6.15;100.00;97859.41;4946427;28;1127;-69
2024/03/14 06:27:00;;;;;;;;;;;6.80;99.90;;;6.32;100.00;97858.22;4947544;28;1331;-69
2024/03/14 06:29:27;;;;;;;;;;;6.80;99.90;;;6.27;100.00;97853.16;4944752;28;1415;-69
2024/03/14 06:31:54;;;;;;;;;;;6.80;99.90;;;6.33;100.00;97862.50;4945586;28;1343;-69
2024/03/14 06:34:21;;;;;;;;;;;6.80;99.90;;;6.46;100.00;97859.63;4944088;28;1233;-69
2024/03/14 06:36:47;;;;;;;;;;;6.80;99.90;;;6.63;100.00;97866.13;4970053;28;1451;-69
2024/03/14 06:39:17;;;;;;;;;;;6.80;99.90;;;6.58;100.00;97860.25;4948718;28;1399;-69
2024/03/14 06:41:44;;;;;;;;;;;6.90;99.90;;;6.66;100.00;97858.31;4944092;28;1911;-69
2024/03/14 06:44:13;;;;;;;;;;;6.90;99.90;;;6.67;100.00;97862.63;4941597;28;1038;-69
2024/03/14 06:46:40;;;;;;;;;;;6.90;99.90;;;6.60;100.00;97867.06;4957161;28;1098;-69
2024/03/14 06:49:12;;;;;;;;;;;6.90;99.90;;;6.78;100.00;97859.81;4939682;28;1267;-69
2024/03/14 06:51:42;;;;;;;;;;;7.00;99.90;;;6.90;100.00;97857.75;4955003;28;1365;-69
2024/03/14 06:54:12;;;;;;;;;;;7.00;99.90;;;6.83;100.00;97858.81;4950439;28;1316;-69
2024/03/14 06:56:40;;;;;;;;;;;7.00;99.90;;;6.88;100.00;97856.09;4953180;28;1121;-69
2024/03/14 06:59:12;;;;;;;;;;;7.00;99.90;;;6.98;100.00;97854.16;4945849;28;1245;-69
2024/03/14 07:01:40;;;;;;;;;;;7.00;99.90;;;6.93;100.00;97861.16;4954740;28;1914;-69
2024/03/14 07:04:08;;;;;;;;;;;6.90;99.90;;;7.06;100.00;97852.25;4942375;28;1009;-69
2024/03/14 07:06:35;;;;;;;;;;;7.00;99.90;;;7.10;100.00;97852.13;4948263;28;1011;-69
2024/03/14 07:09:04;;;;;;;;;;;7.00;99.90;;;7.17;100.00;97854.59;4944200;28;1015;-69
2024/03/14 07:11:31;;;;;;;;;;;7.10;99.90;;;7.27;100.00;97851.72;4957463;28;1249;-69
2024/03/14 07:14:00;;;;;;;;;;;7.20;99.90;;;7.34;100.00;97857.56;4945854;28;1213;-69
2024/03/14 07:16:27;;;;;;;;;;;7.40;99.90;;;7.48;100.00;97855.50;4947406;28;1137;-69
2024/03/14 07:18:54;;;;;;;;;;;7.60;99.90;;;7.60;100.00;97859.50;4943553;28;1149;-69
2024/03/14 07:21:24;;;;;;;;;;;7.80;99.90;;;7.76;100.00;97857.38;4945013;28;1911;-69
2024/03/14 07:23:53;;;;;;;;;;;8.00;99.90;;;7.88;100.00;97853.59;4943249;28;1094;-69
2024/03/14 07:26:23;;;;;;;;;;;8.20;99.90;;;7.80;100.00;97852.94;4946630;28;1064;-69
2024/03/14 07:28:53;;;;;;;;;;;8.20;99.90;;;7.83;100.00;97855.47;4946255;28;1352;-69
2024/03/14 07:31:20;;;;;;;;;;;8.30;99.90;;;8.00;100.00;97857.56;4969745;28;1221;-69
2024/03/14 07:33:48;;;;;;;;;;;8.20;99.90;;;7.89;100.00;97858.72;4946590;28;998;-70
2024/03/14 07:36:15;;;;;;;;;;;8.30;99.90;;;7.76;100.00;97859.94;4949338;28;1053;-69
2024/03/14 07:38:44;;;;;;;;;;;8.30;99.90;;;7.82;100.00;97849.44;4954948;28;1077;-69
2024/03/14 07:41:11;;;;;;;;;;;8.40;99.90;;;8.19;100.00;97858.75;4937516;28;1906;-69
2024/03/14 07:43:38;;;;;;;;;;;8.70;99.90;;;8.17;100.00;97861.38;4956325;28;1153;-69
2024/03/14 07:46:07;;;;;;;;;;;8.70;99.90;;;8.54;100.00;97856.91;4938671;28;1233;-69
2024/03/14 07:48:35;;;;;;;;;;;8.90;99.90;;;8.61;100.00;97860.16;4949828;28;1050;-69
2024/03/14 07:51:02;;;;;;;;;;;9.00;99.90;;;8.76;100.00;97852.78;4923146;28;1289;-69
2024/03/14 07:53:30;;;;;;;;;;;9.10;99.90;;;9.11;100.00;97856.00;4963840;28;1130;-69
2024/03/14 07:55:57;;;;;;;;;;;9.30;99.90;;;9.06;100.00;97854.47;4941588;28;1237;-69
2024/03/14 07:58:24;;;;;;;;;;;9.50;99.90;;;9.00;100.00;97848.56;4940747;28;1102;-69
2024/03/14 08:00:52;;;;;;;;;;;9.30;99.90;;;8.95;100.00;97841.84;4940764;28;1985;-69
2024/03/14 08:03:19;;;;;;;;;;;9.30;99.90;;;9.01;100.00;97833.91;4943290;28;1300;-69
2024/03/14 08:05:50;;;;;;;;;;;9.30;99.90;;;8.78;100.00;97826.84;4949972;28;1262;-69
2024/03/14 08:08:19;;;;;;;;;;;9.50;99.90;;;9.32;100.00;97819.94;4941831;28;1064;-69
2024/03/14 08:10:52;;;;;;;;;;;9.50;99.90;;;9.02;100.00;97814.03;4948217;28;1328;-69
2024/03/14 08:13:23;;;;;;;;;;;9.60;99.90;;;9.32;100.00;97805.22;4944278;28;1098;-69
2024/03/14 08:15:54;;;;;;;;;;;9.70;99.90;;;9.64;100.00;97800.69;4945863;28;1166;-69
2024/03/14 08:18:22;;;;;;;;;;;9.70;99.90;;;9.88;100.00;97798.97;4945434;28;1146;-69
2024/03/14 08:20:52;;;;;;;;;;;9.70;99.90;;;10.05;100.00;97794.00;4941711;28;1935;-69
2024/03/14 08:23:20;;;;;;;;;;;9.60;99.90;;;10.05;100.00;97785.38;4938939;28;1268;-69
2024/03/14 08:25:47;;;;;;;;;;;9.70;99.90;;;10.19;100.00;97784.84;4941407;28;1070;-69
2024/03/14 08:28:16;;;;;;;;;;;10.00;99.90;;;10.15;100.00;97778.09;4926285;28;1173;-69
2024/03/14 08:30:45;;;;;;;;;;;10.20;99.90;;;10.41;100.00;97775.38;4951198;28;1253;-69
2024/03/14 08:33:13;;;;;;;;;;;10.40;99.90;;;10.50;100.00;97770.75;4939877;28;1361;-69
2024/03/14 08:35:42;;;;;;;;;;;10.70;99.90;;;10.78;100.00;97767.88;4939397;28;1306;-69
2024/03/14 08:38:13;;;;;;;;;;;10.90;99.90;;;10.93;100.00;97763.84;4943811;28;939;-69
2024/03/14 08:40:44;;;;;;;;;;;11.00;99.90;;;11.02;100.00;97766.06;4940034;28;1993;-69
2024/03/14 08:43:11;;;;;;;;;;;11.30;99.90;;;11.07;100.00;97766.69;4948230;28;1105;-69
2024/03/14 08:45:39;;;;;;;;;;;11.10;99.90;;;10.93;100.00;97774.22;4952204;28;1102;-70
2024/03/14 08:48:09;;;;;;;;;;;11.30;99.90;;;11.05;100.00;97769.34;4937535;28;1249;-69
2024/03/14 08:50:40;;;;;;;;;;;11.40;99.90;;;11.18;100.00;97768.88;4967659;28;1391;-69
2024/03/14 08:53:12;;;;;;;;;;;11.50;99.90;;;11.15;100.00;97766.38;4942220;28;1050;-69
2024/03/14 08:56:01;;;;;;;;;;;11.20;99.90;;;11.14;100.00;97755.16;4941339;28;1021;-69
2024/03/14 08:58:29;;;;;;;;;;;11.10;99.90;;;11.30;100.00;97758.78;4940389;28;1114;-69
2024/03/14 09:00:56;;;;;;;;;;;11.50;99.90;;;11.50;100.00;97762.28;4939489;28;1910;-69
2024/03/14 09:03:23;;;;;;;;;;;11.50;99.90;;;11.64;100.00;97756.50;4949987;28;2016;-69
2024/03/14 09:05:50;;;;;;;;;;;11.40;99.90;;;11.47;100.00;97754.59;4948032;28;1230;-69
2024/03/14 09:08:24;;;;;;;;;;;11.60;99.90;;;11.28;100.00;97757.16;4949920;28;1021;-69
2024/03/14 09:10:54;;;;;;;;;;;11.80;99.90;;;11.39;100.00;97756.72;4935560;28;1356;-69
2024/03/14 09:13:23;;;;;;;;;;;;;;;11.63;100.00;97754.78;4954252;28;2011;-69
2024/03/14 09:15:50;;;;;;;;;;;12.20;99.90;;;12.94;100.00;97747.81;4945456;28;1175;-69
2024/03/14 09:18:24;;;;;;;;;;;12.90;99.90;;;13.17;100.00;97728.44;4947490;28;1065;-69
2024/03/14 09:20:55;;;;;;;;;;;13.40;99.90;;;13.26;100.00;97714.09;4948978;28;1903;-70
2024/03/14 09:23:25;;;;;;;;;;;13.70;99.90;;;13.30;100.00;97699.19;4952468;28;1127;-69
2024/03/14 09:25:52;;;;;;;;;;;13.80;99.90;;;13.58;100.00;97668.13;4945449;28;2003;-70
2024/03/14 09:28:21;;;;;;;;;;;14.20;99.90;;;13.74;100.00;97659.47;4942588;28;1014;-69
2024/03/14 09:30:48;;;;;;;;;;;14.40;99.90;;;13.88;100.00;97656.13;4950975;28;1402;-70
2024/03/14 09:33:15;;;;;;;;;;;14.40;99.90;;;13.58;100.00;97651.63;4951886;28;1063;-69
2024/03/14 09:35:44;;;;;;;;;;;14.30;99.90;;;13.25;100.00;97649.00;4948790;28;1087;-69
2024/03/14 09:38:13;;;;;;;;;;;14.10;99.90;;;13.36;100.00;97646.69;4936811;28;1170;-69
2024/03/14 09:40:40;;;;;;;;;;;14.00;99.90;;;13.38;100.00;97643.09;4943034;28;1269;-69
2024/03/14 09:43:13;;;;;;;;;;;14.00;99.90;;;13.77;100.00;97641.88;4960573;28;1902;-70
2024/03/14 09:45:42;;;;;;;;;;;14.40;99.90;;;14.09;100.00;97635.81;4972469;28;1243;-70
2024/03/14 09:48:10;;;;;;;;;;;14.60;99.90;;;14.05;100.00;97634.28;4954745;28;1146;-70
2024/03/14 09:50:38;;;;;;;;;;;15.00;99.90;;;14.57;100.00;97629.63;4957681;28;1328;-71
2024/03/14 09:53:05;;;;;;;;;;;15.50;99.90;;;14.22;100.00;97623.75;4949058;28;1325;-70
2024/03/14 09:55:36;;;;;;;;;;;15.60;99.90;;;14.77;100.00;97620.59;4939470;28;1362;-70
2024/03/14 09:58:04;;;;;;;;;;;15.70;99.90;;;14.23;100.00;97620.19;4952125;28;1622;-70
2024/03/14 10:00:31;;;;;;;;;;;15.70;99.90;;;14.20;100.00;97620.38;4951597;28;1326;-70
2024/03/14 10:03:00;;;;;;;;;;;15.60;99.90;;;13.76;100.00;97628.94;4964058;28;1989;-70
2024/03/14 10:05:28;;;;;;;;;;;15.30;99.90;;;14.25;100.00;97628.78;4967745;28;1086;-70
2024/03/14 10:07:55;;;;;;;;;;;15.30;99.90;;;13.96;100.00;97625.22;4951176;28;1130;-70
2024/03/14 10:10:23;;;;;;;;;;;15.00;99.90;;;14.08;100.00;97621.94;4945170;28;1277;-70
2024/03/14 10:12:51;;;;;;;;;;;15.00;99.90;;;13.58;100.00;97618.56;4953987;28;1070;-70
2024/03/14 10:15:23;;;;;;;;;;;15.10;99.90;;;14.29;100.00;97632.91;4940690;28;1381;-70
2024/03/14 10:17:53;;;;;;;;;;;15.20;99.90;;;14.39;100.00;97628.00;4942867;28;1090;-69
2024/03/14 10:20:23;;;;;;;;;;;15.30;99.90;;;14.12;100.00;97622.59;4942502;28;1368;-70
2024/03/14 10:22:51;;;;;;;;;;;15.20;99.90;;;14.02;100.00;97628.31;4971914;28;1902;-70
2024/03/14 10:25:23;;;;;;;;;;;15.00;99.90;;;13.24;100.00;97631.69;4956402;28;1257;-70
2024/03/14 10:27:57;;;;;;;;;;;14.70;99.90;;;13.27;100.00;97634.97;4958190;28;1319;-70
2024/03/14 10:30:36;;;;;;;;;;;14.40;99.90;;;13.10;100.00;97633.25;4948440;28;1351;-70
2024/03/14 10:33:06;;;;;;;;;;;14.30;99.90;;;13.24;100.00;97629.91;4950555;28;1198;-70
2024/03/14 10:35:36;;;;;;;;;;;14.00;99.90;;;12.76;100.00;97634.97;4948329;28;1075;-70
2024/03/14 10:38:07;;;;;;;;;;;13.70;99.90;;;12.50;100.00;97635.44;4940437;28;1314;-70
2024/03/14 10:40:34;;;;;;;;;;;13.30;99.90;;;12.73;100.00;97640.34;4958979;28;1284;-70
2024/03/14 10:43:03;;;;;;;;;;;13.10;99.90;;;12.53;100.00;97635.28;4944524;28;1986;-70
2024/03/14 10:45:31;;;;;;;;;;;13.10;99.90;;;12.75;100.00;97640.28;4981473;28;1398;-70
2024/03/14 10:48:02;;;;;;;;;;;13.00;99.90;;;12.94;100.00;97638.41;4941329;28;1019;-70
2024/03/14 10:50:30;;;;;;;;;;;13.00;99.90;;;12.71;100.00;97641.34;4951152;28;1272;-69
2024/03/14 10:53:01;;;;;;;;;;;13.30;99.90;;;12.79;100.00;97638.34;4962836;28;968;-70
2024/03/14 10:55:32;;;;;;;;;;;13.30;99.90;;;13.19;100.00;97630.16;4942381;28;1241;-70
2024/03/14 10:58:01;;;;;;;;;;;13.40;99.90;;;13.28;100.00;97631.47;4945305;28;1408;-70
2024/03/14 11:00:28;;;;;;;;;;;13.30;99.90;;;13.64;100.00;97625.22;4947122;28;1296;-69
2024/03/14 11:02:57;;;;;;;;;;;13.70;99.90;;;13.71;100.00;97618.75;4945555;28;1927;-69
2024/03/14 11:05:24;;;;;;;;;;;13.80;99.90;;;13.86;100.00;97616.22;4943551;28;1039;-70
2024/03/14 11:07:54;;;;;;;;;;;14.00;99.90;;;14.14;100.00;97608.53;4961453;28;1015;-70
2024/03/14 11:10:28;;;;;;;;;;;14.30;99.90;;;13.97;100.00;97612.06;4944954;28;1292;-70
2024/03/14 11:13:05;;;;;;;;;;;14.30;99.90;;;14.28;100.00;97597.31;4925983;28;1086;-70
2024/03/14 11:15:38;;;;;;;;;;;14.10;99.90;;;14.33;100.00;97595.28;4945824;28;1079;-70
2024/03/14 11:18:13;;;;;;;;;;;14.30;99.90;;;14.67;100.00;97595.13;4955878;28;1102;-70
2024/03/14 11:20:46;;;;;;;;;;;14.70;99.90;;;14.93;100.00;97585.72;4951510;28;1365;-70
2024/03/14 11:23:16;;;;;;;;;;;14.80;99.90;;;14.79;100.00;97571.69;4951407;28;1907;-69
2024/03/14 11:25:47;;;;;;;;;;;14.70;99.90;;;14.87;100.00;97566.03;4934755;28;1041;-70
2024/03/14 11:28:15;;;;;;;;;;;14.60;99.90;;;14.77;100.00;97559.66;4988903;28;1354;-70
2024/03/14 11:31:00;;;;;;;;;;;14.90;99.90;;;14.80;100.00;97557.72;4947069;28;1410;-69
2024/03/14 11:33:27;;;;;;;;;;;15.10;99.90;;;15.03;100.00;97556.34;4952054;28;1366;-70